THY115 OEJN-LTFM
Flight info
| Callsign | THY115 |
|---|---|
| Flight time | 3h 28m |
| Altitude | 34000 |
| Route | MIGDA L677 MENLI/N0467F360 L677 GESON DCT LAGVI Q777 RASDA M855 TOMBI UM855 SISPI |
| Aircraft | B738/M-SDE2E3FGHIRWXY/LB1 |
Departure
| Time | 2026-04-30 17:47 |
|---|---|
| Airport | King Abdulaziz International Airport (OEJN) |
Arrival
| Time | 2026-04-30 21:15 |
|---|---|
| Airport | İstanbul Airport (LTFM) |
| Time | Latitude | Longitude | Altitude | Speed | Heading |
|---|---|---|---|---|---|
| 2026-04-30 17:39 | 21.67723 | 39.16825 | 43 ft | 24 kts | 340° |
| 2026-04-30 17:41 | 21.67308 | 39.16217 | 34 ft | 24 kts | 159° |
| 2026-04-30 17:42 | 21.66968 | 39.16357 | 35 ft | 27 kts | 159° |
| 2026-04-30 17:42 | 21.66671 | 39.16470 | 36 ft | 12 kts | 160° |
| 2026-04-30 17:43 | 21.66457 | 39.16557 | 35 ft | 21 kts | 160° |
| 2026-04-30 17:44 | 21.66159 | 39.16554 | 34 ft | 14 kts | 251° |
| 2026-04-30 17:44 | 21.66179 | 39.16463 | 34 ft | 0 kts | 338° |
| 2026-04-30 17:46 | 21.66370 | 39.16389 | 35 ft | 64 kts | 339° |
| 2026-04-30 17:47 | 21.70328 | 39.14881 | 1567 ft | 182 kts | 341° |
| 2026-04-30 17:48 | 21.75578 | 39.12775 | 3387 ft | 238 kts | 338° |
| 2026-04-30 17:48 | 21.80643 | 39.10753 | 5023 ft | 272 kts | 338° |
| 2026-04-30 17:49 | 21.87919 | 39.07879 | 7945 ft | 283 kts | 338° |
| 2026-04-30 17:50 | 21.95314 | 39.04502 | 10334 ft | 309 kts | 333° |
| 2026-04-30 17:51 | 22.01806 | 39.01386 | 10763 ft | 368 kts | 334° |
| 2026-04-30 17:52 | 22.09173 | 38.97865 | 11707 ft | 394 kts | 334° |
| 2026-04-30 17:53 | 22.21876 | 38.91787 | 14028 ft | 407 kts | 333° |
| 2026-04-30 17:54 | 22.32117 | 38.86885 | 15700 ft | 415 kts | 333° |
| 2026-04-30 17:55 | 22.42784 | 38.81760 | 17260 ft | 423 kts | 333° |
| 2026-04-30 17:56 | 22.53657 | 38.76529 | 18730 ft | 430 kts | 333° |
| 2026-04-30 17:57 | 22.61878 | 38.72568 | 19816 ft | 432 kts | 333° |
| 2026-04-30 17:58 | 22.70212 | 38.68719 | 20829 ft | 436 kts | 334° |
| 2026-04-30 17:59 | 22.81090 | 38.63956 | 22059 ft | 439 kts | 334° |
| 2026-04-30 18:00 | 22.92434 | 38.58923 | 23233 ft | 443 kts | 334° |
| 2026-04-30 18:00 | 23.00887 | 38.55158 | 23913 ft | 447 kts | 333° |
| 2026-04-30 18:01 | 23.06620 | 38.52603 | 24339 ft | 449 kts | 333° |
| 2026-04-30 18:02 | 23.15362 | 38.48702 | 24950 ft | 452 kts | 333° |
| 2026-04-30 18:02 | 23.24122 | 38.44789 | 25547 ft | 454 kts | 333° |
| 2026-04-30 18:03 | 23.32894 | 38.40864 | 26065 ft | 458 kts | 333° |
| 2026-04-30 18:04 | 23.41716 | 38.36912 | 26849 ft | 455 kts | 333° |
| 2026-04-30 18:05 | 23.53380 | 38.31677 | 28034 ft | 450 kts | 332° |
| 2026-04-30 18:06 | 23.64859 | 38.26515 | 29323 ft | 445 kts | 332° |
| 2026-04-30 18:07 | 23.76178 | 38.21414 | 30446 ft | 442 kts | 331° |
| 2026-04-30 18:08 | 23.84734 | 38.17549 | 31043 ft | 444 kts | 330° |
| 2026-04-30 18:09 | 24.10613 | 38.05832 | 32769 ft | 449 kts | 328° |
| 2026-04-30 18:10 | 24.21278 | 37.99263 | 33555 ft | 436 kts | 316° |
| 2026-04-30 18:11 | 24.37041 | 37.87287 | 33840 ft | 439 kts | 316° |
| 2026-04-30 18:13 | 24.40176 | 37.84935 | 33846 ft | 439 kts | 316° |
| 2026-04-30 18:14 | 24.51916 | 37.76107 | 33854 ft | 438 kts | 316° |
| 2026-04-30 18:15 | 24.66932 | 37.64771 | 33867 ft | 435 kts | 316° |
| 2026-04-30 18:16 | 24.76898 | 37.57229 | 33892 ft | 434 kts | 316° |
| 2026-04-30 18:17 | 24.81836 | 37.53486 | 33903 ft | 434 kts | 316° |
| 2026-04-30 18:18 | 24.89285 | 37.47834 | 33896 ft | 433 kts | 316° |
| 2026-04-30 18:18 | 24.94240 | 37.44069 | 33909 ft | 432 kts | 316° |
| 2026-04-30 18:19 | 24.99180 | 37.40312 | 33909 ft | 431 kts | 316° |
| 2026-04-30 18:19 | 25.04119 | 37.36551 | 33915 ft | 431 kts | 316° |
| 2026-04-30 18:20 | 25.09048 | 37.32795 | 33909 ft | 430 kts | 316° |
| 2026-04-30 18:20 | 25.13968 | 37.29042 | 33913 ft | 430 kts | 317° |
| 2026-04-30 18:21 | 25.18856 | 37.25308 | 33910 ft | 429 kts | 317° |
| 2026-04-30 18:21 | 25.23779 | 37.21545 | 33911 ft | 429 kts | 317° |
| 2026-04-30 18:22 | 25.28687 | 37.17790 | 33914 ft | 429 kts | 317° |
| 2026-04-30 18:22 | 25.36051 | 37.12147 | 33910 ft | 429 kts | 317° |
| 2026-04-30 18:23 | 25.40957 | 37.08383 | 33912 ft | 429 kts | 317° |
| 2026-04-30 18:23 | 25.45831 | 37.04641 | 33908 ft | 429 kts | 317° |
| 2026-04-30 18:24 | 25.53182 | 36.98988 | 33911 ft | 428 kts | 317° |
| 2026-04-30 18:25 | 25.58071 | 36.95223 | 33910 ft | 428 kts | 317° |
| 2026-04-30 18:25 | 25.65393 | 36.89577 | 33907 ft | 427 kts | 317° |
| 2026-04-30 18:26 | 25.72679 | 36.83952 | 33907 ft | 426 kts | 318° |
| 2026-04-30 18:27 | 25.79983 | 36.78305 | 33890 ft | 426 kts | 318° |
| 2026-04-30 18:28 | 25.87263 | 36.72667 | 33885 ft | 425 kts | 318° |
| 2026-04-30 18:28 | 25.94538 | 36.67022 | 33888 ft | 425 kts | 318° |
| 2026-04-30 18:29 | 26.04191 | 36.59520 | 33886 ft | 424 kts | 319° |
| 2026-04-30 18:30 | 26.13855 | 36.51994 | 33885 ft | 424 kts | 319° |
| 2026-04-30 18:31 | 26.20606 | 36.45849 | 33898 ft | 415 kts | 309° |
| 2026-04-30 18:32 | 26.26605 | 36.38865 | 33888 ft | 416 kts | 309° |
| 2026-04-30 18:33 | 26.32639 | 36.31883 | 33888 ft | 416 kts | 309° |
| 2026-04-30 18:33 | 26.38657 | 36.24934 | 33889 ft | 417 kts | 309° |
| 2026-04-30 18:34 | 26.44694 | 36.17953 | 33893 ft | 417 kts | 309° |
| 2026-04-30 18:35 | 26.48719 | 36.13292 | 33892 ft | 416 kts | 309° |
| 2026-04-30 18:35 | 26.52742 | 36.08628 | 33894 ft | 416 kts | 309° |
| 2026-04-30 18:36 | 26.58763 | 36.01639 | 33896 ft | 416 kts | 309° |
| 2026-04-30 18:37 | 26.64745 | 35.94683 | 33897 ft | 415 kts | 310° |
| 2026-04-30 18:37 | 26.68742 | 35.90029 | 33898 ft | 415 kts | 309° |
| 2026-04-30 18:38 | 26.72729 | 35.85382 | 33897 ft | 414 kts | 310° |
| 2026-04-30 18:38 | 26.76723 | 35.80722 | 33898 ft | 414 kts | 310° |
| 2026-04-30 18:39 | 26.80714 | 35.76061 | 33898 ft | 413 kts | 310° |
| 2026-04-30 18:39 | 26.84666 | 35.71442 | 33898 ft | 413 kts | 310° |
| 2026-04-30 18:40 | 26.88633 | 35.66800 | 33896 ft | 412 kts | 310° |
| 2026-04-30 18:40 | 26.92598 | 35.62156 | 33897 ft | 412 kts | 309° |
| 2026-04-30 18:41 | 26.96560 | 35.57508 | 33901 ft | 412 kts | 310° |
| 2026-04-30 18:41 | 27.00514 | 35.52866 | 33901 ft | 411 kts | 310° |
| 2026-04-30 18:42 | 27.04458 | 35.48230 | 33897 ft | 411 kts | 309° |
| 2026-04-30 18:42 | 27.10365 | 35.41277 | 33899 ft | 410 kts | 309° |
| 2026-04-30 18:45 | 27.31893 | 35.15840 | 33895 ft | 407 kts | 309° |
| 2026-04-30 18:46 | 27.35789 | 35.11220 | 33889 ft | 407 kts | 309° |
| 2026-04-30 18:46 | 27.39686 | 35.06594 | 33894 ft | 407 kts | 309° |
| 2026-04-30 18:47 | 27.43572 | 35.01976 | 33896 ft | 406 kts | 309° |
| 2026-04-30 18:47 | 27.47454 | 34.97357 | 33886 ft | 406 kts | 309° |
| 2026-04-30 18:48 | 27.51337 | 34.92744 | 33893 ft | 406 kts | 310° |
| 2026-04-30 18:48 | 27.55421 | 34.88326 | 33885 ft | 407 kts | 313° |
| 2026-04-30 18:49 | 27.59573 | 34.84007 | 33887 ft | 406 kts | 313° |
| 2026-04-30 18:49 | 27.63696 | 34.79690 | 33878 ft | 406 kts | 312° |
| 2026-04-30 18:50 | 27.67816 | 34.75342 | 33880 ft | 405 kts | 312° |
| 2026-04-30 18:50 | 27.71929 | 34.70986 | 33881 ft | 405 kts | 312° |
| 2026-04-30 18:51 | 27.76034 | 34.66633 | 33880 ft | 405 kts | 312° |
| 2026-04-30 18:51 | 27.80141 | 34.62273 | 33881 ft | 405 kts | 312° |
| 2026-04-30 18:52 | 27.84248 | 34.57909 | 33883 ft | 404 kts | 312° |
| 2026-04-30 18:52 | 27.88311 | 34.53587 | 33884 ft | 404 kts | 312° |
| 2026-04-30 18:53 | 27.92401 | 34.49230 | 33883 ft | 404 kts | 312° |
| 2026-04-30 18:53 | 27.96491 | 34.44870 | 33884 ft | 404 kts | 312° |
| 2026-04-30 18:54 | 28.00501 | 34.40439 | 33881 ft | 400 kts | 307° |
| 2026-04-30 18:54 | 28.04030 | 34.35570 | 33884 ft | 399 kts | 305° |
| 2026-04-30 18:55 | 28.07526 | 34.30689 | 33890 ft | 399 kts | 306° |
| 2026-04-30 18:55 | 28.12760 | 34.23416 | 33900 ft | 399 kts | 306° |
| 2026-04-30 18:56 | 28.18029 | 34.16104 | 33928 ft | 399 kts | 306° |
| 2026-04-30 18:57 | 28.23303 | 34.08771 | 33973 ft | 400 kts | 306° |
| 2026-04-30 18:57 | 28.26827 | 34.03868 | 33982 ft | 400 kts | 306° |
| 2026-04-30 18:58 | 28.32066 | 33.96572 | 33992 ft | 398 kts | 305° |
| 2026-04-30 18:59 | 28.37337 | 33.89208 | 33986 ft | 400 kts | 306° |
| 2026-04-30 19:00 | 28.44370 | 33.79369 | 33989 ft | 400 kts | 306° |
| 2026-04-30 19:01 | 28.51346 | 33.69585 | 33987 ft | 398 kts | 305° |
| 2026-04-30 19:02 | 28.55990 | 33.63068 | 33988 ft | 397 kts | 305° |
| 2026-04-30 19:03 | 28.63531 | 33.52484 | 33974 ft | 398 kts | 305° |
| 2026-04-30 19:04 | 28.69909 | 33.43492 | 33982 ft | 399 kts | 305° |
| 2026-04-30 19:05 | 28.76877 | 33.33642 | 33979 ft | 399 kts | 305° |
| 2026-04-30 19:06 | 28.83844 | 33.23769 | 33976 ft | 400 kts | 305° |
| 2026-04-30 19:06 | 28.89072 | 33.16346 | 33974 ft | 400 kts | 305° |
| 2026-04-30 19:07 | 28.94273 | 33.08949 | 33979 ft | 399 kts | 305° |
| 2026-04-30 19:08 | 29.01220 | 32.99047 | 33979 ft | 399 kts | 305° |
| 2026-04-30 19:09 | 29.06434 | 32.91599 | 33976 ft | 399 kts | 304° |
| 2026-04-30 19:09 | 29.09901 | 32.86640 | 33989 ft | 399 kts | 304° |
| 2026-04-30 19:10 | 29.16812 | 32.76736 | 33993 ft | 399 kts | 304° |
| 2026-04-30 19:11 | 29.22007 | 32.69274 | 33991 ft | 399 kts | 304° |
| 2026-04-30 19:12 | 29.25464 | 32.64301 | 33991 ft | 399 kts | 304° |
| 2026-04-30 19:12 | 29.28923 | 32.59318 | 33992 ft | 399 kts | 304° |
| 2026-04-30 19:13 | 29.35793 | 32.49320 | 34010 ft | 399 kts | 304° |
| 2026-04-30 19:14 | 29.39227 | 32.44308 | 33999 ft | 399 kts | 304° |
| 2026-04-30 19:14 | 29.42635 | 32.39333 | 33997 ft | 399 kts | 304° |
| 2026-04-30 19:15 | 29.46061 | 32.34324 | 34006 ft | 399 kts | 304° |
| 2026-04-30 19:15 | 29.51191 | 32.26812 | 34013 ft | 399 kts | 304° |
| 2026-04-30 19:16 | 29.54611 | 32.21797 | 34000 ft | 399 kts | 304° |
| 2026-04-30 19:17 | 29.59752 | 32.14245 | 34009 ft | 399 kts | 304° |
| 2026-04-30 19:17 | 29.64886 | 32.06691 | 34008 ft | 400 kts | 304° |
| 2026-04-30 19:18 | 29.70027 | 31.99113 | 34011 ft | 401 kts | 304° |
| 2026-04-30 19:19 | 29.73432 | 31.94083 | 34005 ft | 401 kts | 304° |
| 2026-04-30 19:19 | 29.78577 | 31.86474 | 34003 ft | 401 kts | 303° |
| 2026-04-30 19:20 | 29.81918 | 31.81300 | 33998 ft | 401 kts | 302° |
| 2026-04-30 19:21 | 29.86883 | 31.73517 | 34002 ft | 402 kts | 302° |
| 2026-04-30 19:21 | 29.90552 | 31.68696 | 34006 ft | 411 kts | 317° |
| 2026-04-30 19:22 | 29.95683 | 31.65550 | 33994 ft | 429 kts | 336° |
| 2026-04-30 19:22 | 30.04695 | 31.63823 | 34532 ft | 437 kts | 343° |
| 2026-04-30 19:23 | 30.13683 | 31.62324 | 35267 ft | 435 kts | 343° |
| 2026-04-30 19:24 | 30.19675 | 31.61259 | 35608 ft | 436 kts | 343° |
| 2026-04-30 19:24 | 30.22675 | 31.60719 | 35820 ft | 436 kts | 343° |
| 2026-04-30 19:24 | 30.28675 | 31.59637 | 36010 ft | 438 kts | 343° |
| 2026-04-30 19:25 | 30.37678 | 31.58015 | 36018 ft | 436 kts | 343° |
| 2026-04-30 19:26 | 30.49611 | 31.55862 | 36025 ft | 433 kts | 343° |
| 2026-04-30 19:27 | 30.58542 | 31.54245 | 36024 ft | 433 kts | 343° |
| 2026-04-30 19:28 | 30.67475 | 31.52624 | 36032 ft | 433 kts | 343° |
| 2026-04-30 19:29 | 30.79428 | 31.50452 | 36030 ft | 435 kts | 343° |
| 2026-04-30 19:30 | 30.91384 | 31.48267 | 36031 ft | 437 kts | 343° |
| 2026-04-30 19:31 | 31.03417 | 31.46065 | 36032 ft | 438 kts | 344° |
| 2026-04-30 19:31 | 31.12460 | 31.44406 | 36033 ft | 438 kts | 344° |
| 2026-04-30 19:32 | 31.18485 | 31.43298 | 36031 ft | 438 kts | 344° |
| 2026-04-30 19:32 | 31.24509 | 31.42190 | 36033 ft | 438 kts | 344° |
| 2026-04-30 19:33 | 31.30525 | 31.41079 | 36030 ft | 437 kts | 343° |
| 2026-04-30 19:33 | 31.36542 | 31.39963 | 36037 ft | 437 kts | 343° |
| 2026-04-30 19:34 | 31.42508 | 31.38856 | 36032 ft | 436 kts | 343° |
| 2026-04-30 19:35 | 31.51496 | 31.37185 | 36030 ft | 436 kts | 343° |
| 2026-04-30 19:35 | 31.57504 | 31.36152 | 36029 ft | 438 kts | 346° |
| 2026-04-30 19:36 | 31.63593 | 31.35528 | 36034 ft | 439 kts | 348° |
| 2026-04-30 19:36 | 31.72726 | 31.34659 | 36033 ft | 438 kts | 347° |
| 2026-04-30 19:37 | 31.78803 | 31.34031 | 36030 ft | 438 kts | 347° |
| 2026-04-30 19:37 | 31.84836 | 31.33401 | 36031 ft | 438 kts | 347° |
| 2026-04-30 19:38 | 31.90906 | 31.32765 | 36034 ft | 438 kts | 347° |
| 2026-04-30 19:38 | 31.96975 | 31.32122 | 36033 ft | 438 kts | 347° |
| 2026-04-30 19:39 | 32.03044 | 31.31479 | 36038 ft | 438 kts | 347° |
| 2026-04-30 19:39 | 32.09106 | 31.30834 | 36037 ft | 437 kts | 347° |
| 2026-04-30 19:40 | 32.15181 | 31.30185 | 36032 ft | 437 kts | 347° |
| 2026-04-30 19:40 | 32.21261 | 31.29533 | 36034 ft | 437 kts | 347° |
| 2026-04-30 19:41 | 32.27322 | 31.28881 | 36035 ft | 437 kts | 347° |
| 2026-04-30 19:41 | 32.33366 | 31.28229 | 36036 ft | 437 kts | 347° |
| 2026-04-30 19:42 | 32.39425 | 31.27576 | 36033 ft | 437 kts | 347° |
| 2026-04-30 19:42 | 32.45486 | 31.26920 | 36031 ft | 437 kts | 347° |
| 2026-04-30 19:43 | 32.51556 | 31.26264 | 36032 ft | 437 kts | 347° |
| 2026-04-30 19:44 | 32.60310 | 31.24218 | 36026 ft | 421 kts | 330° |
| 2026-04-30 19:44 | 32.65532 | 31.21182 | 36031 ft | 418 kts | 327° |
| 2026-04-30 19:45 | 32.70731 | 31.18086 | 36035 ft | 418 kts | 327° |
| 2026-04-30 19:45 | 32.75947 | 31.15014 | 36031 ft | 419 kts | 328° |
| 2026-04-30 19:46 | 32.81181 | 31.11946 | 36030 ft | 419 kts | 328° |
| 2026-04-30 19:46 | 32.86412 | 31.08881 | 36030 ft | 419 kts | 328° |
| 2026-04-30 19:47 | 32.91645 | 31.05810 | 36029 ft | 419 kts | 328° |
| 2026-04-30 19:47 | 32.96882 | 31.02731 | 36030 ft | 419 kts | 328° |
| 2026-04-30 19:48 | 33.02085 | 30.99668 | 36030 ft | 419 kts | 328° |
| 2026-04-30 19:48 | 33.07343 | 30.96630 | 36008 ft | 422 kts | 332° |
| 2026-04-30 19:49 | 33.13104 | 30.94850 | 36012 ft | 436 kts | 347° |
| 2026-04-30 19:49 | 33.21250 | 30.94481 | 36020 ft | 441 kts | 351° |
| 2026-04-30 19:50 | 33.27383 | 30.94319 | 36026 ft | 441 kts | 351° |
| 2026-04-30 19:50 | 33.34514 | 30.94080 | 36028 ft | 440 kts | 351° |
| 2026-04-30 19:51 | 33.39647 | 30.93889 | 36026 ft | 440 kts | 351° |
| 2026-04-30 19:51 | 33.45727 | 30.93658 | 36021 ft | 440 kts | 351° |
| 2026-04-30 19:52 | 33.51844 | 30.93426 | 36023 ft | 440 kts | 351° |
| 2026-04-30 19:52 | 33.57964 | 30.93195 | 36025 ft | 439 kts | 351° |
| 2026-04-30 19:53 | 33.64075 | 30.92964 | 36024 ft | 439 kts | 351° |
| 2026-04-30 19:53 | 33.70185 | 30.92732 | 36024 ft | 439 kts | 351° |
| 2026-04-30 19:54 | 33.76308 | 30.92500 | 36022 ft | 439 kts | 351° |
| 2026-04-30 19:54 | 33.82416 | 30.92267 | 36026 ft | 439 kts | 351° |
| 2026-04-30 19:55 | 33.88525 | 30.92035 | 36025 ft | 439 kts | 351° |
| 2026-04-30 19:55 | 33.94638 | 30.91802 | 36025 ft | 440 kts | 351° |
| 2026-04-30 19:56 | 34.00713 | 30.91504 | 36026 ft | 439 kts | 350° |
| 2026-04-30 19:56 | 34.06826 | 30.91147 | 36026 ft | 440 kts | 350° |
| 2026-04-30 19:57 | 34.12955 | 30.90797 | 36018 ft | 441 kts | 351° |
| 2026-04-30 19:57 | 34.19087 | 30.90457 | 36029 ft | 441 kts | 351° |
| 2026-04-30 19:58 | 34.25195 | 30.90118 | 36021 ft | 442 kts | 351° |
| 2026-04-30 19:58 | 34.31351 | 30.89812 | 36021 ft | 443 kts | 351° |
| 2026-04-30 19:59 | 34.37518 | 30.89517 | 36021 ft | 443 kts | 351° |
| 2026-04-30 20:00 | 34.46782 | 30.89066 | 36019 ft | 444 kts | 351° |
| 2026-04-30 20:00 | 34.52970 | 30.88761 | 36023 ft | 445 kts | 351° |
| 2026-04-30 20:01 | 34.62255 | 30.88305 | 36021 ft | 446 kts | 352° |
| 2026-04-30 20:01 | 34.68431 | 30.88082 | 36020 ft | 447 kts | 353° |
| 2026-04-30 20:02 | 34.77757 | 30.87798 | 36023 ft | 447 kts | 353° |
| 2026-04-30 20:03 | 34.87116 | 30.87493 | 36025 ft | 448 kts | 353° |
| 2026-04-30 20:03 | 34.93359 | 30.87285 | 36022 ft | 449 kts | 353° |
| 2026-04-30 20:04 | 34.99612 | 30.87077 | 36020 ft | 449 kts | 353° |
| 2026-04-30 20:05 | 35.09002 | 30.86765 | 36019 ft | 451 kts | 353° |
| 2026-04-30 20:05 | 35.18376 | 30.86453 | 36018 ft | 452 kts | 353° |
| 2026-04-30 20:06 | 35.24711 | 30.86241 | 36019 ft | 453 kts | 353° |
| 2026-04-30 20:06 | 35.30971 | 30.86031 | 36016 ft | 453 kts | 353° |
| 2026-04-30 20:07 | 35.37278 | 30.85820 | 36017 ft | 454 kts | 353° |
| 2026-04-30 20:08 | 35.46763 | 30.85501 | 36017 ft | 455 kts | 354° |
| 2026-04-30 20:08 | 35.53086 | 30.85289 | 36018 ft | 455 kts | 354° |
| 2026-04-30 20:09 | 35.59417 | 30.85076 | 36016 ft | 455 kts | 354° |
| 2026-04-30 20:09 | 35.68873 | 30.84610 | 36016 ft | 454 kts | 352° |
| 2026-04-30 20:10 | 35.78353 | 30.84001 | 36015 ft | 454 kts | 353° |
| 2026-04-30 20:11 | 35.87821 | 30.83425 | 36015 ft | 454 kts | 353° |
| 2026-04-30 20:11 | 35.94129 | 30.83045 | 36017 ft | 454 kts | 353° |
| 2026-04-30 20:12 | 36.03602 | 30.82472 | 36010 ft | 454 kts | 353° |
| 2026-04-30 20:13 | 36.09918 | 30.82201 | 36012 ft | 454 kts | 354° |
| 2026-04-30 20:13 | 36.16239 | 30.82022 | 36010 ft | 454 kts | 354° |
| 2026-04-30 20:14 | 36.22527 | 30.81830 | 36012 ft | 454 kts | 354° |
| 2026-04-30 20:14 | 36.28840 | 30.81621 | 36018 ft | 454 kts | 354° |
| 2026-04-30 20:15 | 36.35155 | 30.81409 | 36016 ft | 454 kts | 354° |
| 2026-04-30 20:15 | 36.41466 | 30.81197 | 36015 ft | 454 kts | 354° |
| 2026-04-30 20:16 | 36.47199 | 30.81002 | 36021 ft | 454 kts | 354° |
| 2026-04-30 20:16 | 36.53470 | 30.80785 | 36013 ft | 454 kts | 354° |
| 2026-04-30 20:17 | 36.59784 | 30.80566 | 36013 ft | 454 kts | 354° |
| 2026-04-30 20:17 | 36.66105 | 30.80348 | 36021 ft | 454 kts | 354° |
| 2026-04-30 20:18 | 36.72400 | 30.80130 | 36016 ft | 454 kts | 354° |
| 2026-04-30 20:18 | 36.78725 | 30.79911 | 36024 ft | 454 kts | 354° |
| 2026-04-30 20:19 | 36.85049 | 30.79692 | 36023 ft | 454 kts | 354° |
| 2026-04-30 20:19 | 36.89898 | 30.79523 | 36024 ft | 454 kts | 354° |
| 2026-04-30 20:20 | 36.94328 | 30.79270 | 36021 ft | 452 kts | 351° |
| 2026-04-30 20:20 | 37.00582 | 30.78497 | 36020 ft | 451 kts | 349° |
| 2026-04-30 20:21 | 37.06820 | 30.77645 | 36024 ft | 451 kts | 349° |
| 2026-04-30 20:21 | 37.13074 | 30.76837 | 36029 ft | 452 kts | 350° |
| 2026-04-30 20:22 | 37.19333 | 30.76056 | 36033 ft | 452 kts | 350° |
| 2026-04-30 20:22 | 37.25592 | 30.75277 | 36047 ft | 451 kts | 349° |
| 2026-04-30 20:23 | 37.31844 | 30.74496 | 36058 ft | 451 kts | 350° |
| 2026-04-30 20:23 | 37.38090 | 30.73713 | 36052 ft | 452 kts | 349° |
| 2026-04-30 20:24 | 37.44356 | 30.72899 | 36053 ft | 452 kts | 349° |
| 2026-04-30 20:24 | 37.50569 | 30.71976 | 36056 ft | 452 kts | 349° |
| 2026-04-30 20:25 | 37.59934 | 30.70609 | 36071 ft | 452 kts | 349° |
| 2026-04-30 20:26 | 37.69307 | 30.69462 | 36070 ft | 453 kts | 350° |
| 2026-04-30 20:26 | 37.78744 | 30.68310 | 36067 ft | 454 kts | 350° |
| 2026-04-30 20:27 | 37.91328 | 30.66723 | 36063 ft | 453 kts | 349° |
| 2026-04-30 20:28 | 38.03826 | 30.64933 | 36058 ft | 453 kts | 350° |
| 2026-04-30 20:30 | 38.19500 | 30.62906 | 36048 ft | 452 kts | 349° |
| 2026-04-30 20:31 | 38.38240 | 30.60409 | 36044 ft | 451 kts | 349° |
| 2026-04-30 20:32 | 38.53862 | 30.58294 | 36037 ft | 451 kts | 349° |
| 2026-04-30 20:33 | 38.63237 | 30.57023 | 36033 ft | 451 kts | 349° |
| 2026-04-30 20:34 | 38.72562 | 30.55754 | 36034 ft | 452 kts | 349° |
| 2026-04-30 20:35 | 38.81803 | 30.53777 | 36039 ft | 444 kts | 336° |
| 2026-04-30 20:35 | 38.90053 | 30.48637 | 36031 ft | 440 kts | 329° |
| 2026-04-30 20:36 | 38.95530 | 30.45053 | 36038 ft | 441 kts | 329° |
| 2026-04-30 20:37 | 39.03719 | 30.39775 | 36040 ft | 442 kts | 329° |
| 2026-04-30 20:37 | 39.08353 | 30.36799 | 36036 ft | 442 kts | 329° |
| 2026-04-30 20:38 | 39.14751 | 30.32683 | 36037 ft | 443 kts | 329° |
| 2026-04-30 20:38 | 39.19330 | 30.29731 | 36045 ft | 443 kts | 329° |
| 2026-04-30 20:39 | 39.27611 | 30.24380 | 36035 ft | 443 kts | 329° |
| 2026-04-30 20:40 | 39.35887 | 30.19018 | 36034 ft | 444 kts | 329° |
| 2026-04-30 20:40 | 39.41404 | 30.15436 | 36031 ft | 443 kts | 329° |
| 2026-04-30 20:41 | 39.49755 | 30.10237 | 36025 ft | 445 kts | 333° |
| 2026-04-30 20:41 | 39.55466 | 30.07122 | 35402 ft | 450 kts | 333° |
| 2026-04-30 20:42 | 39.58317 | 30.05568 | 34696 ft | 447 kts | 333° |
| 2026-04-30 20:42 | 39.61147 | 30.04013 | 34133 ft | 437 kts | 332° |
| 2026-04-30 20:42 | 39.66654 | 30.00949 | 32709 ft | 423 kts | 332° |
| 2026-04-30 20:43 | 39.69332 | 29.99448 | 32017 ft | 415 kts | 332° |
| 2026-04-30 20:43 | 39.71961 | 29.97974 | 31334 ft | 410 kts | 332° |
| 2026-04-30 20:43 | 39.74583 | 29.96502 | 30642 ft | 414 kts | 332° |
| 2026-04-30 20:44 | 39.80071 | 29.93410 | 28987 ft | 447 kts | 332° |
| 2026-04-30 20:44 | 39.82966 | 29.91784 | 28636 ft | 450 kts | 333° |
| 2026-04-30 20:44 | 39.88537 | 29.88667 | 28173 ft | 414 kts | 332° |
| 2026-04-30 20:45 | 39.93885 | 29.86858 | 27683 ft | 392 kts | 354° |
| 2026-04-30 20:45 | 39.96592 | 29.86859 | 27371 ft | 391 kts | 355° |
| 2026-04-30 20:45 | 39.99358 | 29.86898 | 27066 ft | 404 kts | 355° |
| 2026-04-30 20:46 | 40.08014 | 29.86968 | 26005 ft | 418 kts | 355° |
| 2026-04-30 20:46 | 40.10908 | 29.86971 | 25659 ft | 418 kts | 355° |
| 2026-04-30 20:47 | 40.16709 | 29.86962 | 24962 ft | 411 kts | 355° |
| 2026-04-30 20:47 | 40.19543 | 29.86958 | 24607 ft | 405 kts | 354° |
| 2026-04-30 20:48 | 40.25140 | 29.86947 | 23962 ft | 402 kts | 354° |
| 2026-04-30 20:48 | 40.27940 | 29.86941 | 23608 ft | 402 kts | 354° |
| 2026-04-30 20:48 | 40.30729 | 29.86935 | 23225 ft | 401 kts | 354° |
| 2026-04-30 20:48 | 40.33516 | 29.86930 | 22860 ft | 400 kts | 354° |
| 2026-04-30 20:49 | 40.36291 | 29.86927 | 22526 ft | 397 kts | 354° |
| 2026-04-30 20:49 | 40.39069 | 29.87072 | 22171 ft | 401 kts | 3° |
| 2026-04-30 20:49 | 40.41752 | 29.87946 | 21846 ft | 407 kts | 15° |
| 2026-04-30 20:50 | 40.46412 | 29.91499 | 21215 ft | 409 kts | 33° |
| 2026-04-30 20:50 | 40.48103 | 29.93123 | 20963 ft | 405 kts | 32° |
| 2026-04-30 20:50 | 40.50380 | 29.95263 | 20625 ft | 398 kts | 29° |
| 2026-04-30 20:50 | 40.52859 | 29.96700 | 20280 ft | 383 kts | 8° |
| 2026-04-30 20:51 | 40.55419 | 29.97067 | 20007 ft | 368 kts | 354° |
| 2026-04-30 20:51 | 40.60475 | 29.96964 | 19408 ft | 358 kts | 353° |
| 2026-04-30 20:51 | 40.62960 | 29.96930 | 19117 ft | 355 kts | 354° |
| 2026-04-30 20:52 | 40.65426 | 29.96920 | 18816 ft | 352 kts | 354° |
| 2026-04-30 20:52 | 40.67838 | 29.96681 | 18518 ft | 343 kts | 343° |
| 2026-04-30 20:52 | 40.72262 | 29.94807 | 17906 ft | 329 kts | 333° |
| 2026-04-30 20:53 | 40.74376 | 29.93789 | 17616 ft | 325 kts | 333° |
| 2026-04-30 20:53 | 40.76497 | 29.92782 | 17339 ft | 322 kts | 333° |
| 2026-04-30 20:53 | 40.78600 | 29.91798 | 17068 ft | 320 kts | 334° |
| 2026-04-30 20:54 | 40.82772 | 29.89865 | 16541 ft | 318 kts | 334° |
| 2026-04-30 20:54 | 40.84733 | 29.88596 | 16254 ft | 307 kts | 314° |
| 2026-04-30 20:54 | 40.86076 | 29.86526 | 16039 ft | 291 kts | 292° |
| 2026-04-30 20:55 | 40.86872 | 29.81496 | 15693 ft | 282 kts | 266° |
| 2026-04-30 20:55 | 40.86828 | 29.78885 | 15488 ft | 284 kts | 265° |
| 2026-04-30 20:55 | 40.86779 | 29.76274 | 15304 ft | 283 kts | 265° |
| 2026-04-30 20:56 | 40.86695 | 29.71120 | 14929 ft | 281 kts | 265° |
| 2026-04-30 20:56 | 40.86661 | 29.68571 | 14738 ft | 275 kts | 265° |
| 2026-04-30 20:56 | 40.86539 | 29.63636 | 14376 ft | 262 kts | 258° |
| 2026-04-30 20:57 | 40.86185 | 29.61314 | 14210 ft | 254 kts | 254° |
| 2026-04-30 20:57 | 40.85782 | 29.59059 | 14034 ft | 250 kts | 254° |
| 2026-04-30 20:57 | 40.85394 | 29.56836 | 13886 ft | 247 kts | 255° |
| 2026-04-30 20:58 | 40.84647 | 29.52397 | 13534 ft | 248 kts | 255° |
| 2026-04-30 20:58 | 40.84384 | 29.50144 | 13371 ft | 250 kts | 263° |
| 2026-04-30 20:58 | 40.84314 | 29.47838 | 13211 ft | 252 kts | 265° |
| 2026-04-30 20:58 | 40.84277 | 29.45513 | 13047 ft | 253 kts | 265° |
| 2026-04-30 20:59 | 40.84184 | 29.40874 | 12726 ft | 252 kts | 264° |
| 2026-04-30 20:59 | 40.84125 | 29.38584 | 12540 ft | 253 kts | 264° |
| 2026-04-30 21:00 | 40.83991 | 29.33921 | 12150 ft | 255 kts | 264° |
| 2026-04-30 21:00 | 40.83854 | 29.29248 | 11732 ft | 252 kts | 264° |
| 2026-04-30 21:01 | 40.83718 | 29.24703 | 11283 ft | 244 kts | 264° |
| 2026-04-30 21:01 | 40.83650 | 29.22469 | 11059 ft | 242 kts | 264° |
| 2026-04-30 21:01 | 40.83515 | 29.18034 | 10629 ft | 240 kts | 264° |
| 2026-04-30 21:02 | 40.83447 | 29.15833 | 10415 ft | 240 kts | 264° |
| 2026-04-30 21:02 | 40.83379 | 29.13659 | 10215 ft | 239 kts | 264° |
| 2026-04-30 21:02 | 40.83311 | 29.11470 | 9980 ft | 239 kts | 264° |
| 2026-04-30 21:02 | 40.83403 | 29.09269 | 9745 ft | 241 kts | 273° |
| 2026-04-30 21:03 | 40.83663 | 29.07078 | 9517 ft | 241 kts | 275° |
| 2026-04-30 21:03 | 40.83942 | 29.04895 | 9297 ft | 241 kts | 275° |
| 2026-04-30 21:03 | 40.84217 | 29.02718 | 9090 ft | 240 kts | 275° |
| 2026-04-30 21:03 | 40.84483 | 29.00543 | 8870 ft | 240 kts | 275° |
| 2026-04-30 21:04 | 40.84744 | 28.98367 | 8660 ft | 239 kts | 275° |
| 2026-04-30 21:04 | 40.85000 | 28.96191 | 8434 ft | 240 kts | 275° |
| 2026-04-30 21:04 | 40.85502 | 28.91860 | 8011 ft | 240 kts | 276° |
| 2026-04-30 21:05 | 40.85752 | 28.89681 | 7788 ft | 240 kts | 276° |
| 2026-04-30 21:05 | 40.85886 | 28.87488 | 7557 ft | 238 kts | 261° |
| 2026-04-30 21:05 | 40.85451 | 28.85392 | 7364 ft | 236 kts | 250° |
| 2026-04-30 21:05 | 40.84931 | 28.83328 | 7134 ft | 237 kts | 256° |
| 2026-04-30 21:06 | 40.84961 | 28.81159 | 6905 ft | 240 kts | 284° |
| 2026-04-30 21:06 | 40.85793 | 28.79239 | 6715 ft | 246 kts | 310° |
| 2026-04-30 21:06 | 40.87186 | 28.77953 | 6486 ft | 253 kts | 332° |
| 2026-04-30 21:06 | 40.88844 | 28.77142 | 6255 ft | 255 kts | 338° |
| 2026-04-30 21:07 | 40.90533 | 28.76430 | 6000 ft | 253 kts | 339° |
| 2026-04-30 21:07 | 40.92205 | 28.75718 | 5758 ft | 251 kts | 339° |
| 2026-04-30 21:07 | 40.93849 | 28.74999 | 5522 ft | 248 kts | 340° |
| 2026-04-30 21:07 | 40.95491 | 28.74271 | 5295 ft | 246 kts | 341° |
| 2026-04-30 21:08 | 40.97088 | 28.73583 | 5091 ft | 235 kts | 347° |
| 2026-04-30 21:08 | 40.98639 | 28.73321 | 5035 ft | 220 kts | 358° |
| 2026-04-30 21:08 | 41.00157 | 28.73269 | 5048 ft | 213 kts | 360° |
| 2026-04-30 21:08 | 41.01598 | 28.73246 | 5028 ft | 200 kts | 0° |
| 2026-04-30 21:09 | 41.02977 | 28.73224 | 4940 ft | 200 kts | 1° |
| 2026-04-30 21:09 | 41.04342 | 28.73199 | 4682 ft | 189 kts | 1° |
| 2026-04-30 21:09 | 41.05588 | 28.73174 | 4474 ft | 167 kts | 1° |
| 2026-04-30 21:09 | 41.06678 | 28.73152 | 4218 ft | 147 kts | 2° |
| 2026-04-30 21:10 | 41.07668 | 28.73133 | 4029 ft | 139 kts | 3° |
| 2026-04-30 21:10 | 41.08620 | 28.73117 | 3845 ft | 137 kts | 4° |
| 2026-04-30 21:10 | 41.09581 | 28.73101 | 3659 ft | 138 kts | 4° |
| 2026-04-30 21:10 | 41.10534 | 28.73082 | 3477 ft | 136 kts | 3° |
| 2026-04-30 21:11 | 41.11481 | 28.73063 | 3294 ft | 137 kts | 4° |
| 2026-04-30 21:11 | 41.12426 | 28.73045 | 3127 ft | 134 kts | 4° |
| 2026-04-30 21:11 | 41.13362 | 28.73025 | 2943 ft | 135 kts | 4° |
| 2026-04-30 21:11 | 41.14299 | 28.73007 | 2757 ft | 134 kts | 5° |
| 2026-04-30 21:12 | 41.15225 | 28.72991 | 2572 ft | 132 kts | 4° |
| 2026-04-30 21:12 | 41.16146 | 28.72972 | 2391 ft | 133 kts | 4° |
| 2026-04-30 21:12 | 41.17059 | 28.72954 | 2201 ft | 130 kts | 4° |
| 2026-04-30 21:12 | 41.17960 | 28.72937 | 2030 ft | 133 kts | 4° |
| 2026-04-30 21:13 | 41.18893 | 28.72918 | 1844 ft | 133 kts | 3° |
| 2026-04-30 21:13 | 41.19785 | 28.72899 | 1694 ft | 127 kts | 4° |
| 2026-04-30 21:13 | 41.20682 | 28.72884 | 1507 ft | 125 kts | 3° |
| 2026-04-30 21:13 | 41.21537 | 28.72866 | 1328 ft | 121 kts | 4° |
| 2026-04-30 21:14 | 41.22373 | 28.72852 | 1128 ft | 119 kts | 2° |
| 2026-04-30 21:14 | 41.23186 | 28.72835 | 963 ft | 116 kts | 3° |
| 2026-04-30 21:14 | 41.23997 | 28.72820 | 832 ft | 116 kts | 4° |
| 2026-04-30 21:14 | 41.24824 | 28.72819 | 679 ft | 123 kts | 3° |
| 2026-04-30 21:15 | 41.25687 | 28.72777 | 475 ft | 123 kts | 3° |
| 2026-04-30 21:15 | 41.26506 | 28.72759 | 361 ft | 112 kts | 5° |
| 2026-04-30 21:15 | 41.27201 | 28.72772 | 331 ft | 83 kts | 357° |
| 2026-04-30 21:15 | 41.27573 | 28.72811 | 332 ft | 18 kts | 26° |
| 2026-04-30 21:16 | 41.27664 | 28.72864 | 333 ft | 14 kts | 57° |
| 2026-04-30 21:16 | 41.27669 | 28.72906 | 332 ft | 0 kts | 111° |
| 2026-04-30 21:16 | 41.27660 | 28.72926 | 330 ft | 4 kts | 126° |
| 2026-04-30 21:16 | 41.27629 | 28.72954 | 333 ft | 7 kts | 154° |
| 2026-04-30 21:17 | 41.27568 | 28.72972 | 329 ft | 10 kts | 178° |
| 2026-04-30 21:17 | 41.27477 | 28.72975 | 332 ft | 17 kts | 179° |
| 2026-04-30 21:17 | 41.27338 | 28.72979 | 329 ft | 23 kts | 178° |
| 2026-04-30 21:17 | 41.27155 | 28.72982 | 333 ft | 29 kts | 179° |
| 2026-04-30 21:18 | 41.26964 | 28.73009 | 333 ft | 14 kts | 136° |
| 2026-04-30 21:18 | 41.26959 | 28.73434 | 331 ft | 18 kts | 89° |
| 2026-04-30 21:18 | 41.26962 | 28.73781 | 333 ft | 23 kts | 89° |
| 2026-04-30 21:18 | 41.26964 | 28.73933 | 333 ft | 15 kts | 89° |
| 2026-04-30 21:19 | 41.26967 | 28.74081 | 333 ft | 18 kts | 89° |
| 2026-04-30 21:19 | 41.26970 | 28.74262 | 333 ft | 21 kts | 89° |
| 2026-04-30 21:19 | 41.26972 | 28.74468 | 333 ft | 23 kts | 88° |
| 2026-04-30 21:19 | 41.26974 | 28.74694 | 332 ft | 25 kts | 90° |
| 2026-04-30 21:20 | 41.26977 | 28.74935 | 333 ft | 26 kts | 88° |
| 2026-04-30 21:20 | 41.26947 | 28.75149 | 333 ft | 7 kts | 153° |
| 2026-04-30 21:20 | 41.26890 | 28.75149 | 329 ft | 10 kts | 179° |
| 2026-04-30 21:20 | 41.26801 | 28.75154 | 332 ft | 15 kts | 179° |
| 2026-04-30 21:21 | 41.26679 | 28.75155 | 331 ft | 19 kts | 182° |
| 2026-04-30 21:21 | 41.26565 | 28.75102 | 330 ft | 11 kts | 221° |
| 2026-04-30 21:21 | 41.26525 | 28.74969 | 333 ft | 0 kts | 285° |